createdAt,value
2023-04-02T00:00:54.018Z,45.07
2023-04-02T00:01:54.121Z,45.08
2023-04-02T00:02:54.201Z,44.98
2023-04-02T00:03:54.345Z,44.73
2023-04-02T00:04:54.229Z,44.40
2023-04-02T00:05:54.159Z,44.41
2023-04-02T00:06:54.230Z,44.52
2023-04-02T00:07:54.223Z,44.53
2023-04-02T00:08:54.193Z,44.58
2023-04-02T00:09:54.244Z,44.42
2023-04-02T00:10:54.161Z,44.09
2023-04-02T00:11:54.164Z,44.41
2023-04-02T00:12:54.128Z,44.40
2023-04-02T00:13:54.182Z,44.56
2023-04-02T00:14:54.120Z,44.69
2023-04-02T00:15:54.129Z,44.73
2023-04-02T00:16:54.139Z,44.74
2023-04-02T00:17:54.175Z,44.64
2023-04-02T00:18:54.207Z,44.57
2023-04-02T00:19:54.126Z,44.69
2023-04-02T00:20:54.128Z,44.78
2023-04-02T00:21:54.161Z,44.82
2023-04-02T00:22:54.079Z,44.78
2023-04-02T00:23:54.092Z,44.74
2023-04-02T00:24:54.052Z,44.91
2023-04-02T00:25:54.087Z,45.16
2023-04-02T00:26:54.174Z,45.37
2023-04-02T00:27:54.104Z,45.21
2023-04-02T00:28:54.785Z,45.16
2023-04-02T00:29:54.121Z,45.18
2023-04-02T00:30:54.034Z,45.27
2023-04-02T00:31:54.116Z,45.35
2023-04-02T00:32:54.174Z,46.42
2023-04-02T00:33:54.055Z,47.00
2023-04-02T00:34:54.915Z,47.61
2023-04-02T00:35:54.109Z,47.40
2023-04-02T00:36:53.992Z,47.40
2023-04-02T00:37:54.019Z,47.28
2023-04-02T00:38:54.005Z,47.14
2023-04-02T00:39:53.965Z,47.34
2023-04-02T00:40:54.009Z,46.91
2023-04-02T00:41:53.993Z,46.78
2023-04-02T00:43:01.553Z,46.60
2023-04-02T00:43:53.958Z,46.38
2023-04-02T00:44:54.011Z,46.65
2023-04-02T00:45:53.998Z,46.56
2023-04-02T00:46:53.958Z,46.75
2023-04-02T00:47:53.975Z,46.99
2023-04-02T00:48:53.977Z,46.77
2023-04-02T00:49:53.939Z,46.57
2023-04-02T00:50:53.957Z,46.35
2023-04-02T00:51:53.943Z,46.16
2023-04-02T00:52:53.945Z,46.07
2023-04-02T00:53:54.925Z,45.72
2023-04-02T00:54:53.871Z,45.89
2023-04-02T00:55:53.853Z,45.76
2023-04-02T00:56:53.914Z,45.37
2023-04-02T00:57:53.944Z,45.30
2023-04-02T00:58:53.847Z,45.26
2023-04-02T00:59:53.851Z,45.40
2023-04-02T01:00:53.865Z,45.58
2023-04-02T01:01:53.808Z,45.60
2023-04-02T01:02:53.978Z,45.56
2023-04-02T01:03:53.913Z,45.53
2023-04-02T01:04:53.845Z,45.59
2023-04-02T01:05:53.929Z,45.99
2023-04-02T01:06:53.854Z,46.19
2023-04-02T01:07:53.907Z,46.39
2023-04-02T01:08:53.835Z,46.24
2023-04-02T01:09:54.387Z,45.99
2023-04-02T01:10:53.860Z,45.98
2023-04-02T01:11:53.882Z,45.74
2023-04-02T01:12:53.877Z,45.34
2023-04-02T01:13:53.868Z,44.70
2023-04-02T01:14:53.868Z,45.01
2023-04-02T01:15:53.957Z,45.16
2023-04-02T01:16:54.113Z,45.13
2023-04-02T01:17:53.919Z,45.24
2023-04-02T01:18:53.975Z,45.37
2023-04-02T01:19:53.924Z,45.26
2023-04-02T01:20:53.945Z,44.92
2023-04-02T01:21:53.954Z,44.64
2023-04-02T01:22:54.002Z,45.48
2023-04-02T01:23:54.006Z,45.54
2023-04-02T01:24:53.958Z,45.23
2023-04-02T01:25:53.966Z,45.06
2023-04-02T01:26:53.968Z,44.98
2023-04-02T01:27:53.967Z,45.12
2023-04-02T01:28:53.966Z,45.07
2023-04-02T01:29:54.051Z,45.43
2023-04-02T01:30:54.004Z,45.64
2023-04-02T01:31:53.940Z,45.95
2023-04-02T01:32:54.020Z,45.70
2023-04-02T01:33:53.932Z,45.95
2023-04-02T01:34:54.017Z,45.54
2023-04-02T01:35:53.960Z,45.48
2023-04-02T01:36:53.861Z,45.35
2023-04-02T01:37:53.899Z,45.25
2023-04-02T01:38:53.885Z,45.19
2023-04-02T01:39:53.891Z,45.45
2023-04-02T01:40:53.919Z,45.99
2023-04-02T01:41:53.879Z,46.00
2023-04-02T01:42:53.879Z,45.87
2023-04-02T01:43:54.398Z,45.62
2023-04-02T01:44:53.894Z,45.57
2023-04-02T01:45:53.878Z,45.55
2023-04-02T01:46:55.257Z,45.01
2023-04-02T01:47:53.980Z,44.69
2023-04-02T01:48:53.982Z,44.76
2023-04-02T01:49:53.911Z,44.85
2023-04-02T01:50:53.896Z,45.05
2023-04-02T01:51:53.874Z,45.61
2023-04-02T01:52:54.352Z,45.29
2023-04-02T01:53:53.902Z,45.14
2023-04-02T01:54:53.881Z,44.42
2023-04-02T01:55:53.869Z,44.42
2023-04-02T01:56:53.994Z,44.44
2023-04-02T01:57:53.976Z,44.31
2023-04-02T01:58:53.881Z,44.72
2023-04-02T01:59:53.976Z,44.64
2023-04-02T02:00:53.962Z,44.56
2023-04-02T02:01:53.897Z,44.58
2023-04-02T02:02:53.948Z,44.64
2023-04-02T02:03:53.907Z,44.72
2023-04-02T02:04:53.895Z,44.78
2023-04-02T02:05:53.907Z,44.91
2023-04-02T02:06:53.833Z,45.00
2023-04-02T02:07:53.922Z,44.91
2023-04-02T02:08:54.025Z,44.92
2023-04-02T02:09:54.009Z,44.97
2023-04-02T02:10:54.074Z,44.88
2023-04-02T02:11:54.012Z,45.83
2023-04-02T02:12:54.042Z,46.37
2023-04-02T02:13:54.097Z,46.51
2023-04-02T02:14:54.184Z,46.70
2023-04-02T02:15:54.133Z,46.78
2023-04-02T02:16:54.180Z,47.03
2023-04-02T02:17:54.338Z,46.95
2023-04-02T02:18:54.198Z,47.08
2023-04-02T02:19:54.212Z,47.18
2023-04-02T02:20:54.169Z,47.08
2023-04-02T02:21:54.249Z,47.24
2023-04-02T02:22:54.206Z,47.31
2023-04-02T02:23:54.177Z,47.34
2023-04-02T02:24:55.014Z,47.38
2023-04-02T02:25:54.207Z,47.42
2023-04-02T02:26:54.265Z,48.26
2023-04-02T02:27:54.957Z,48.13
2023-04-02T02:28:54.274Z,48.35
2023-04-02T02:29:54.292Z,48.20
2023-04-02T02:30:54.213Z,48.30
2023-04-02T02:31:54.190Z,48.43
2023-04-02T02:32:54.370Z,48.36
2023-04-02T02:33:54.210Z,48.34
2023-04-02T02:34:54.202Z,48.31
2023-04-02T02:35:54.161Z,48.57
2023-04-02T02:36:54.200Z,48.41
2023-04-02T02:37:54.277Z,48.59
2023-04-02T02:38:54.520Z,48.67
2023-04-02T02:39:54.361Z,48.72
2023-04-02T02:40:54.369Z,48.84
2023-04-02T02:41:54.386Z,48.85
2023-04-02T02:42:54.487Z,48.89
2023-04-02T02:43:54.516Z,48.89
2023-04-02T02:44:54.589Z,48.82
2023-04-02T02:45:54.633Z,48.86
2023-04-02T02:46:54.650Z,48.90
2023-04-02T02:47:54.738Z,48.95
2023-04-02T02:48:54.742Z,48.72
2023-04-02T02:49:54.690Z,48.64
2023-04-02T02:50:54.656Z,48.72
2023-04-02T02:51:54.786Z,48.78
2023-04-02T02:52:54.953Z,48.78
2023-04-02T02:53:54.866Z,48.79
2023-04-02T02:54:54.885Z,48.79
2023-04-02T02:55:54.888Z,48.79
2023-04-02T02:56:55.014Z,49.06
2023-04-02T02:57:54.856Z,48.92
2023-04-02T02:58:54.919Z,49.07
2023-04-02T02:59:54.840Z,48.93
2023-04-02T03:00:54.861Z,48.68
2023-04-02T03:01:54.829Z,48.93
2023-04-02T03:02:55.061Z,49.07
2023-04-02T03:03:55.016Z,49.41
2023-04-02T03:04:54.980Z,50.22
2023-04-02T03:05:54.965Z,50.11
2023-04-02T03:06:55.067Z,50.25
2023-04-02T03:07:55.105Z,50.56
2023-04-02T03:08:55.137Z,50.81
2023-04-02T03:09:55.181Z,50.73
2023-04-02T03:10:55.184Z,51.07
2023-04-02T03:11:55.222Z,51.55
2023-04-02T03:12:55.222Z,51.80
2023-04-02T03:13:55.212Z,52.11
2023-04-02T03:14:55.228Z,51.53
2023-04-02T03:15:55.267Z,51.19
2023-04-02T03:16:55.235Z,51.02
2023-04-02T03:17:55.342Z,50.65
2023-04-02T03:18:55.280Z,50.45
2023-04-02T03:19:55.300Z,50.74
2023-04-02T03:20:55.256Z,50.77
2023-04-02T03:21:55.304Z,50.49
2023-04-02T03:22:55.324Z,50.31
2023-04-02T03:23:55.305Z,50.30
2023-04-02T03:24:55.315Z,50.41
2023-04-02T03:25:55.318Z,50.51
2023-04-02T03:26:55.411Z,51.30
2023-04-02T03:27:55.340Z,50.78
2023-04-02T03:28:55.349Z,50.24
2023-04-02T03:29:55.414Z,49.95
2023-04-02T03:30:55.403Z,49.70
2023-04-02T03:31:55.360Z,49.62
2023-04-02T03:32:55.401Z,49.57
2023-04-02T03:33:55.377Z,49.43
2023-04-02T03:34:55.361Z,49.33
2023-04-02T03:35:55.344Z,49.32
2023-04-02T03:36:55.359Z,49.16
2023-04-02T03:37:55.316Z,49.15
2023-04-02T03:38:55.301Z,49.02
2023-04-02T03:39:55.336Z,49.08
2023-04-02T03:40:55.345Z,49.07
2023-04-02T03:41:55.329Z,49.04
2023-04-02T03:42:55.414Z,49.03
2023-04-02T03:43:55.296Z,48.97
2023-04-02T03:44:55.295Z,48.95
2023-04-02T03:45:55.315Z,49.13
2023-04-02T03:46:55.281Z,49.45
2023-04-02T03:47:55.290Z,49.78
2023-04-02T03:48:55.363Z,49.65
2023-04-02T03:49:55.261Z,49.73
2023-04-02T03:50:55.263Z,49.68
2023-04-02T03:51:55.294Z,49.63
2023-04-02T03:52:55.236Z,49.52
2023-04-02T03:53:55.280Z,49.46
2023-04-02T03:54:55.284Z,49.11
2023-04-02T03:55:55.278Z,49.08
2023-04-02T03:56:55.410Z,48.89
2023-04-02T03:57:55.323Z,48.95
2023-04-02T03:58:55.337Z,48.93
2023-04-02T03:59:55.270Z,48.96
2023-04-02T04:00:55.248Z,48.84
2023-04-02T04:01:55.363Z,48.81
2023-04-02T04:02:55.374Z,48.82
2023-04-02T04:03:55.336Z,48.73
2023-04-02T04:04:55.346Z,48.97
2023-04-02T04:05:55.236Z,49.02
2023-04-02T04:06:55.216Z,49.08
2023-04-02T04:07:55.220Z,49.28
2023-04-02T04:08:55.282Z,49.32
2023-04-02T04:09:55.333Z,49.38
2023-04-02T04:10:55.445Z,49.46
2023-04-02T04:11:55.413Z,49.46
2023-04-02T04:12:55.445Z,49.36
2023-04-02T04:13:55.452Z,49.41
2023-04-02T04:14:55.553Z,49.38
2023-04-02T04:15:55.550Z,49.45
2023-04-02T04:16:55.702Z,49.42
2023-04-02T04:17:55.616Z,49.30
2023-04-02T04:18:55.547Z,49.24
2023-04-02T04:19:55.537Z,49.35
2023-04-02T04:20:55.492Z,49.40
2023-04-02T04:21:55.552Z,49.53
2023-04-02T04:22:55.466Z,49.61
2023-04-02T04:23:55.478Z,49.73
2023-04-02T04:24:55.493Z,49.86
2023-04-02T04:25:55.448Z,50.08
2023-04-02T04:26:55.486Z,50.19
2023-04-02T04:27:55.448Z,50.17
2023-04-02T04:28:55.431Z,50.16
2023-04-02T04:29:56.411Z,50.15
2023-04-02T04:30:55.437Z,50.25
2023-04-02T04:31:55.655Z,50.22
2023-04-02T04:32:55.452Z,50.25
2023-04-02T04:33:55.450Z,50.34
2023-04-02T04:34:55.427Z,50.62
2023-04-02T04:35:55.398Z,50.62
2023-04-02T04:36:55.382Z,50.92
2023-04-02T04:37:55.488Z,50.85
2023-04-02T04:38:55.388Z,50.80
2023-04-02T04:39:55.406Z,50.97
2023-04-02T04:40:55.403Z,50.88
2023-04-02T04:41:55.406Z,50.87
2023-04-02T04:42:55.333Z,50.99
2023-04-02T04:43:55.373Z,50.99
2023-04-02T04:44:55.445Z,51.37
2023-04-02T04:45:55.377Z,51.45
2023-04-02T04:46:55.348Z,51.74
2023-04-02T04:47:55.391Z,51.44
2023-04-02T04:48:55.968Z,51.24
2023-04-02T04:49:55.425Z,51.20
2023-04-02T04:50:55.418Z,51.13
2023-04-02T04:51:55.547Z,51.42
2023-04-02T04:52:55.498Z,51.38
2023-04-02T04:53:55.527Z,51.57
2023-04-02T04:54:55.475Z,51.70
2023-04-02T04:55:55.573Z,51.96
2023-04-02T04:56:55.449Z,52.06
2023-04-02T04:57:55.537Z,52.58
2023-04-02T04:58:55.548Z,52.41
2023-04-02T04:59:55.455Z,52.49
2023-04-02T05:00:55.432Z,52.24
2023-04-02T05:01:55.499Z,52.13
2023-04-02T05:02:55.417Z,52.36
2023-04-02T05:03:55.464Z,52.74
2023-04-02T05:04:55.508Z,52.82
2023-04-02T05:05:55.391Z,52.61
2023-04-02T05:06:55.413Z,52.91
2023-04-02T05:07:56.759Z,53.20
2023-04-02T05:08:55.529Z,53.68
2023-04-02T05:09:55.625Z,53.19
2023-04-02T05:10:55.709Z,52.90
2023-04-02T05:11:55.693Z,52.82
2023-04-02T05:12:55.759Z,53.09
2023-04-02T05:13:55.856Z,53.21
2023-04-02T05:14:55.857Z,53.16
2023-04-02T05:15:55.836Z,53.18
2023-04-02T05:16:55.792Z,53.57
2023-04-02T05:17:55.891Z,53.33
2023-04-02T05:18:55.786Z,52.97
2023-04-02T05:19:55.860Z,52.63
2023-04-02T05:20:55.757Z,52.08
2023-04-02T05:21:55.827Z,51.67
2023-04-02T05:22:55.810Z,51.43
2023-04-02T05:23:55.768Z,51.26
2023-04-02T05:24:55.784Z,51.16
2023-04-02T05:25:55.754Z,50.92
2023-04-02T05:26:55.743Z,50.87
2023-04-02T05:27:55.837Z,50.85
2023-04-02T05:28:55.758Z,50.63
2023-04-02T05:29:55.706Z,50.43
2023-04-02T05:30:55.777Z,50.33
2023-04-02T05:31:55.823Z,50.42
2023-04-02T05:32:55.831Z,50.37
2023-04-02T05:33:55.826Z,50.27
2023-04-02T05:34:55.872Z,50.33
2023-04-02T05:35:55.904Z,50.49
2023-04-02T05:36:55.816Z,50.40
2023-04-02T05:37:55.873Z,50.47
2023-04-02T05:38:56.004Z,50.45
2023-04-02T05:39:55.931Z,50.42
2023-04-02T05:40:55.950Z,50.50
2023-04-02T05:41:56.004Z,50.52
2023-04-02T05:42:56.580Z,50.56
2023-04-02T05:43:56.163Z,50.42
2023-04-02T05:44:56.237Z,50.28
2023-04-02T05:45:56.303Z,50.02
2023-04-02T05:46:56.475Z,50.00
2023-04-02T05:47:56.443Z,50.55
2023-04-02T05:48:56.495Z,50.60
2023-04-02T05:49:56.521Z,50.52
2023-04-02T05:50:56.526Z,50.42
2023-04-02T05:51:57.611Z,50.47
2023-04-02T05:52:56.588Z,50.39
2023-04-02T05:53:56.624Z,50.40
2023-04-02T05:54:56.688Z,50.31
2023-04-02T05:55:56.662Z,50.31
2023-04-02T05:56:56.730Z,50.19
2023-04-02T05:58:21.229Z,50.14
2023-04-02T05:58:57.733Z,49.72
2023-04-02T05:59:56.661Z,49.54
2023-04-02T06:00:56.632Z,49.52
2023-04-02T06:01:56.658Z,49.53
2023-04-02T06:02:56.780Z,49.48
2023-04-02T06:03:56.752Z,49.55
2023-04-02T06:04:56.733Z,49.63
2023-04-02T06:05:56.658Z,49.63
2023-04-02T06:06:56.685Z,49.55
2023-04-02T06:07:56.636Z,49.39
2023-04-02T06:08:56.642Z,49.20
2023-04-02T06:09:56.636Z,49.07
2023-04-02T06:10:57.676Z,48.98
2023-04-02T06:11:56.768Z,48.87
2023-04-02T06:12:56.742Z,49.31
2023-04-02T06:13:56.697Z,49.64
2023-04-02T06:14:56.751Z,49.49
2023-04-02T06:15:56.752Z,49.78
2023-04-02T06:16:56.803Z,49.70
2023-04-02T06:17:56.726Z,49.63
2023-04-02T06:18:56.688Z,49.55
2023-04-02T06:19:56.767Z,49.57
2023-04-02T06:20:56.672Z,49.24
2023-04-02T06:21:56.631Z,49.07
2023-04-02T06:22:56.633Z,48.53
2023-04-02T06:23:56.786Z,48.27
2023-04-02T06:24:56.655Z,48.18
2023-04-02T06:25:56.612Z,48.10
2023-04-02T06:26:56.671Z,48.05
2023-04-02T06:27:56.630Z,47.90
2023-04-02T06:28:56.726Z,47.90
2023-04-02T06:29:56.640Z,47.63
2023-04-02T06:30:56.627Z,47.86
2023-04-02T06:31:56.584Z,47.63
2023-04-02T06:32:56.634Z,47.72
2023-04-02T06:33:56.606Z,47.75
2023-04-02T06:34:56.789Z,47.84
2023-04-02T06:35:56.690Z,47.70
2023-04-02T06:36:56.689Z,47.65
2023-04-02T06:37:56.699Z,48.27
2023-04-02T06:38:56.754Z,47.88
2023-04-02T06:39:56.794Z,47.63
2023-04-02T06:40:58.745Z,47.78
2023-04-02T06:41:56.800Z,47.89
2023-04-02T06:42:56.922Z,48.06
2023-04-02T06:43:56.931Z,48.05
2023-04-02T06:44:56.992Z,48.04
2023-04-02T06:45:56.986Z,47.98
2023-04-02T06:46:58.004Z,48.09
2023-04-02T06:47:57.182Z,48.08
2023-04-02T06:48:57.085Z,47.82
2023-04-02T06:49:57.128Z,47.73
2023-04-02T06:50:57.019Z,47.81
2023-04-02T06:51:56.998Z,47.66
2023-04-02T06:52:57.103Z,47.99
2023-04-02T06:53:57.018Z,47.96
2023-04-02T06:54:57.068Z,47.85
2023-04-02T06:55:57.089Z,47.28
2023-04-02T06:56:56.962Z,47.25
2023-04-02T06:57:56.980Z,47.20
2023-04-02T06:58:56.984Z,46.99
2023-04-02T06:59:56.955Z,46.61
2023-04-02T07:00:57.444Z,47.06
2023-04-02T07:01:57.032Z,47.49
2023-04-02T07:02:57.067Z,47.62
2023-04-02T07:03:56.981Z,47.76
2023-04-02T07:04:57.025Z,48.69
2023-04-02T07:05:56.914Z,49.22
2023-04-02T07:06:56.922Z,48.05
2023-04-02T07:07:56.996Z,48.57
2023-04-02T07:08:56.913Z,48.65
2023-04-02T07:09:56.873Z,48.18
2023-04-02T07:10:56.845Z,47.69
2023-04-02T07:11:56.876Z,47.42
2023-04-02T07:12:56.882Z,47.13
2023-04-02T07:13:56.871Z,46.52
2023-04-02T07:14:56.849Z,46.23
2023-04-02T07:15:56.864Z,46.45
2023-04-02T07:16:56.939Z,46.16
2023-04-02T07:17:56.889Z,45.71
2023-04-02T07:18:56.818Z,45.56
2023-04-02T07:19:56.847Z,45.22
2023-04-02T07:20:56.817Z,44.70
2023-04-02T07:21:56.841Z,44.64
2023-04-02T07:22:56.847Z,44.54
2023-04-02T07:23:56.887Z,43.81
2023-04-02T07:24:56.821Z,44.13
2023-04-02T07:25:56.817Z,44.05
2023-04-02T07:26:56.789Z,43.99
2023-04-02T07:27:56.813Z,43.80
2023-04-02T07:28:56.805Z,44.40
2023-04-02T07:29:56.800Z,43.86
2023-04-02T07:30:56.781Z,44.08
2023-04-02T07:31:56.858Z,44.57
2023-04-02T07:32:56.900Z,44.51
2023-04-02T07:33:56.872Z,44.01
2023-04-02T07:34:56.798Z,44.02
2023-04-02T07:35:56.812Z,43.45
2023-04-02T07:36:56.772Z,43.31
2023-04-02T07:37:56.801Z,43.31
2023-04-02T07:38:56.831Z,42.67
2023-04-02T07:39:56.744Z,42.90
2023-04-02T07:40:56.789Z,42.81
2023-04-02T07:41:56.790Z,43.14
2023-04-02T07:42:56.824Z,43.76
2023-04-02T07:43:56.845Z,44.50
2023-04-02T07:44:56.878Z,44.56
2023-04-02T07:45:56.910Z,44.81
2023-04-02T07:46:56.960Z,44.18
2023-04-02T07:47:56.979Z,43.61
2023-04-02T07:48:57.021Z,43.15
2023-04-02T07:49:57.124Z,42.30
2023-04-02T07:50:57.030Z,42.43
2023-04-02T07:51:57.023Z,42.25
2023-04-02T07:52:57.038Z,41.77
2023-04-02T07:53:57.051Z,41.26
2023-04-02T07:54:57.068Z,41.20
2023-04-02T07:55:57.050Z,40.97
2023-04-02T07:56:57.098Z,40.55
2023-04-02T07:57:57.131Z,40.26
2023-04-02T07:58:57.042Z,40.46
2023-04-02T07:59:57.159Z,41.00
2023-04-02T08:00:57.071Z,40.69
2023-04-02T08:01:57.118Z,41.07
2023-04-02T08:02:57.239Z,41.96
2023-04-02T08:03:57.031Z,41.57
2023-04-02T08:04:57.065Z,40.85
2023-04-02T08:05:56.903Z,40.48
2023-04-02T08:06:56.922Z,39.81
2023-04-02T08:07:57.080Z,39.43
2023-04-02T08:08:57.009Z,39.19
2023-04-02T08:09:56.924Z,38.79
2023-04-02T08:10:57.462Z,38.17
2023-04-02T08:11:57.636Z,38.05
2023-04-02T08:12:56.964Z,37.46
2023-04-02T08:13:56.924Z,36.77
2023-04-02T08:14:56.969Z,36.19
2023-04-02T08:15:56.878Z,35.70
2023-04-02T08:16:56.921Z,35.16
2023-04-02T08:17:57.005Z,35.36
2023-04-02T08:18:56.910Z,35.43
2023-04-02T08:19:56.878Z,35.37
2023-04-02T08:20:56.991Z,35.05
2023-04-02T08:21:56.869Z,34.77
2023-04-02T08:22:56.951Z,34.66
2023-04-02T08:23:56.970Z,34.49
2023-04-02T08:24:56.958Z,34.62
2023-04-02T08:25:56.950Z,34.47
2023-04-02T08:26:56.960Z,34.55
2023-04-02T08:27:57.486Z,34.49
2023-04-02T08:28:57.016Z,34.57
2023-04-02T08:29:57.283Z,34.15
2023-04-02T08:30:56.993Z,34.11
2023-04-02T08:31:56.963Z,33.73
2023-04-02T08:32:57.017Z,33.34
2023-04-02T08:33:56.971Z,33.29
2023-04-02T08:34:56.980Z,33.12
2023-04-02T08:35:56.916Z,33.53
2023-04-02T08:36:56.847Z,33.64
2023-04-02T08:37:56.917Z,34.36
2023-04-02T08:38:56.973Z,35.06
2023-04-02T08:39:56.856Z,34.62
2023-04-02T08:40:57.751Z,35.47
2023-04-02T08:41:56.950Z,35.17
2023-04-02T08:42:56.955Z,34.72
2023-04-02T08:43:56.997Z,34.49
2023-04-02T08:44:57.199Z,34.33
2023-04-02T08:45:57.194Z,34.13
2023-04-02T08:46:57.169Z,34.12
2023-04-02T08:47:57.241Z,34.36
2023-04-02T08:48:57.220Z,34.10
2023-04-02T08:49:57.123Z,33.72
2023-04-02T08:50:57.072Z,33.47
2023-04-02T08:51:57.097Z,33.40
2023-04-02T08:52:57.086Z,33.56
2023-04-02T08:53:58.069Z,34.23
2023-04-02T08:54:57.067Z,33.83
2023-04-02T08:55:58.004Z,33.27
2023-04-02T08:56:57.931Z,32.96
2023-04-02T08:57:57.093Z,32.88
2023-04-02T08:58:56.981Z,32.43
2023-04-02T08:59:57.046Z,32.57
2023-04-02T09:00:57.023Z,32.63
2023-04-02T09:01:57.060Z,33.27
2023-04-02T09:02:57.023Z,32.52
2023-04-02T09:03:57.014Z,32.32
2023-04-02T09:04:57.057Z,31.90
2023-04-02T09:05:57.092Z,31.94
2023-04-02T09:06:56.940Z,33.19
2023-04-02T09:07:57.031Z,32.23
2023-04-02T09:08:56.977Z,31.89
2023-04-02T09:09:56.944Z,31.27
2023-04-02T09:10:56.970Z,30.99
2023-04-02T09:11:56.945Z,31.62
2023-04-02T09:12:56.962Z,31.44
2023-04-02T09:13:56.935Z,31.85
2023-04-02T09:14:57.462Z,31.94
2023-04-02T09:15:56.918Z,31.84
2023-04-02T09:16:56.907Z,31.88
2023-04-02T09:17:58.986Z,31.24
2023-04-02T09:18:56.906Z,31.23
2023-04-02T09:19:56.950Z,30.85
2023-04-02T09:20:56.961Z,30.84
2023-04-02T09:21:56.919Z,30.50
2023-04-02T09:22:56.937Z,30.74
2023-04-02T09:23:57.002Z,30.73
2023-04-02T09:24:56.855Z,30.74
2023-04-02T09:26:04.184Z,31.54
2023-04-02T09:26:57.881Z,31.29
2023-04-02T09:27:56.871Z,30.16
2023-04-02T09:28:56.869Z,31.12
2023-04-02T09:29:56.894Z,31.54
2023-04-02T09:30:56.852Z,30.54
2023-04-02T09:31:56.902Z,30.06
2023-04-02T09:32:57.038Z,29.26
2023-04-02T09:33:56.949Z,28.34
2023-04-02T09:34:56.849Z,28.39
2023-04-02T09:35:56.861Z,28.78
2023-04-02T09:36:56.834Z,28.53
2023-04-02T09:37:56.769Z,28.06
2023-04-02T09:38:56.902Z,28.32
2023-04-02T09:39:56.846Z,29.54
2023-04-02T09:40:56.825Z,29.95
2023-04-02T09:42:04.915Z,30.46
2023-04-02T09:42:57.752Z,30.40
2023-04-02T09:43:56.778Z,30.77
2023-04-02T09:44:56.772Z,30.39
2023-04-02T09:45:56.759Z,30.30
2023-04-02T09:46:56.812Z,30.81
2023-04-02T09:47:56.782Z,29.94
2023-04-02T09:48:56.710Z,29.82
2023-04-02T09:49:56.722Z,29.82
2023-04-02T09:50:56.953Z,29.52
2023-04-02T09:51:56.796Z,29.35
2023-04-02T09:52:56.858Z,29.18
2023-04-02T09:53:56.894Z,29.19
2023-04-02T09:54:56.894Z,29.12
2023-04-02T09:55:56.899Z,29.34
2023-04-02T09:56:56.989Z,29.18
2023-04-02T09:57:57.014Z,29.12
2023-04-02T09:58:57.103Z,29.14
2023-04-02T09:59:57.060Z,29.25
2023-04-02T10:00:57.117Z,29.49
2023-04-02T10:01:57.101Z,29.84
2023-04-02T10:02:57.145Z,30.88
2023-04-02T10:03:57.226Z,30.75
2023-04-02T10:04:57.184Z,31.17
2023-04-02T10:05:57.280Z,30.71
2023-04-02T10:06:57.247Z,30.14
2023-04-02T10:07:57.242Z,30.31
2023-04-02T10:08:57.313Z,30.37
2023-04-02T10:09:57.354Z,30.82
2023-04-02T10:10:57.318Z,30.82
2023-04-02T10:11:57.261Z,30.78
2023-04-02T10:12:57.291Z,30.80
2023-04-02T10:13:57.289Z,30.58
2023-04-02T10:14:57.356Z,30.18
2023-04-02T10:15:57.365Z,29.92
2023-04-02T10:16:57.383Z,30.06
2023-04-02T10:17:57.324Z,29.96
2023-04-02T10:18:57.460Z,29.77
2023-04-02T10:19:57.488Z,29.94
2023-04-02T10:20:57.443Z,29.52
2023-04-02T10:21:57.584Z,29.35
2023-04-02T10:22:57.589Z,29.20
2023-04-02T10:23:57.720Z,28.68
2023-04-02T10:24:57.761Z,28.54
2023-04-02T10:25:57.782Z,28.43
2023-04-02T10:26:57.842Z,28.09
2023-04-02T10:27:57.790Z,28.15
2023-04-02T10:28:57.971Z,27.55
2023-04-02T10:29:57.877Z,27.73
2023-04-02T10:30:58.009Z,28.08
2023-04-02T10:31:58.024Z,27.75
2023-04-02T10:32:57.968Z,27.64
2023-04-02T10:33:57.959Z,27.14
2023-04-02T10:34:58.005Z,27.08
2023-04-02T10:35:58.018Z,27.40
2023-04-02T10:36:57.943Z,27.30
2023-04-02T10:37:57.945Z,27.44
2023-04-02T10:38:57.984Z,27.64
2023-04-02T10:39:57.949Z,27.83
2023-04-02T10:40:57.958Z,28.00
2023-04-02T10:41:57.977Z,27.93
2023-04-02T10:42:58.023Z,27.98
2023-04-02T10:44:06.163Z,28.36
2023-04-02T10:44:58.982Z,28.53
2023-04-02T10:45:58.038Z,28.59
2023-04-02T10:46:58.037Z,28.46
2023-04-02T10:47:57.964Z,28.65
2023-04-02T10:48:58.042Z,28.94
2023-04-02T10:49:58.003Z,29.53
2023-04-02T10:50:58.008Z,29.09
2023-04-02T10:51:58.033Z,29.09
2023-04-02T10:52:58.055Z,28.90
2023-04-02T10:53:58.022Z,28.85
2023-04-02T10:54:58.083Z,28.66
2023-04-02T10:55:58.169Z,28.65
2023-04-02T10:56:58.295Z,28.64
2023-04-02T10:57:58.134Z,28.88
2023-04-02T10:58:58.216Z,28.90
2023-04-02T10:59:58.269Z,29.06
2023-04-02T11:00:58.223Z,28.63
2023-04-02T11:01:58.329Z,28.74
2023-04-02T11:02:58.344Z,28.28
2023-04-02T11:03:58.464Z,28.40
2023-04-02T11:04:59.920Z,28.38
2023-04-02T11:05:58.461Z,28.50
2023-04-02T11:07:11.172Z,28.76
2023-04-02T11:07:59.453Z,28.89
2023-04-02T11:08:58.431Z,28.72
2023-04-02T11:09:58.392Z,28.60
2023-04-02T11:10:58.400Z,28.36
2023-04-02T11:11:58.394Z,28.22
2023-04-02T11:12:58.356Z,28.43
2023-04-02T11:13:58.413Z,28.25
2023-04-02T11:14:58.353Z,28.09
2023-04-02T11:15:58.459Z,28.50
2023-04-02T11:16:58.346Z,27.94
2023-04-02T11:17:58.426Z,27.94
2023-04-02T11:18:58.477Z,27.95
2023-04-02T11:19:58.472Z,27.90
2023-04-02T11:20:58.475Z,28.46
2023-04-02T11:21:59.887Z,27.96
2023-04-02T11:22:58.590Z,28.69
2023-04-02T11:23:58.624Z,27.68
2023-04-02T11:24:58.697Z,27.81
2023-04-02T11:25:58.703Z,27.71
2023-04-02T11:26:58.730Z,27.66
2023-04-02T11:27:58.801Z,27.61
2023-04-02T11:28:58.837Z,27.86
2023-04-02T11:29:58.853Z,27.76
2023-04-02T11:30:58.910Z,28.15
2023-04-02T11:31:58.939Z,27.71
2023-04-02T11:32:59.023Z,27.67
2023-04-02T11:33:59.024Z,27.72
2023-04-02T11:35:06.370Z,27.50
2023-04-02T11:36:00.057Z,27.39
2023-04-02T11:36:58.992Z,27.60
2023-04-02T11:37:58.993Z,27.66
2023-04-02T11:39:04.603Z,27.49
2023-04-02T11:39:58.960Z,27.60
2023-04-02T11:40:59.061Z,27.78
2023-04-02T11:41:59.020Z,27.86
2023-04-02T11:42:58.973Z,28.05
2023-04-02T11:43:58.979Z,27.96
2023-04-02T11:44:59.012Z,28.33
2023-04-02T11:45:59.308Z,28.47
2023-04-02T11:46:59.059Z,29.05
2023-04-02T11:48:00.033Z,28.75
2023-04-02T11:48:58.920Z,29.43
2023-04-02T11:49:58.985Z,29.32
2023-04-02T11:50:58.999Z,29.53
2023-04-02T11:52:10.932Z,29.25
2023-04-02T11:52:58.907Z,29.40
2023-04-02T11:53:58.925Z,28.99
2023-04-02T11:54:58.894Z,29.14
2023-04-02T11:55:58.879Z,29.14
2023-04-02T11:56:58.995Z,29.37
2023-04-02T11:57:58.940Z,29.50
2023-04-02T11:58:58.904Z,29.26
2023-04-02T11:59:58.849Z,29.28
2023-04-02T12:00:58.887Z,28.84
2023-04-02T12:01:58.932Z,28.81
2023-04-02T12:02:58.882Z,28.78
2023-04-02T12:03:58.903Z,28.67
2023-04-02T12:04:58.926Z,28.16
2023-04-02T12:05:58.875Z,28.02
2023-04-02T12:06:58.868Z,28.47
2023-04-02T12:07:58.920Z,27.97
2023-04-02T12:08:58.890Z,28.45
2023-04-02T12:09:58.980Z,27.95
2023-04-02T12:10:58.967Z,27.75
2023-04-02T12:11:59.029Z,28.12
2023-04-02T12:12:59.177Z,28.73
2023-04-02T12:13:59.201Z,29.03
2023-04-02T12:14:59.256Z,28.55
2023-04-02T12:15:59.264Z,28.30
2023-04-02T12:16:59.331Z,27.90
2023-04-02T12:17:59.308Z,27.95
2023-04-02T12:18:59.429Z,28.14
2023-04-02T12:19:59.454Z,28.56
2023-04-02T12:20:59.437Z,28.22
2023-04-02T12:21:59.482Z,28.07
2023-04-02T12:22:59.611Z,28.02
2023-04-02T12:23:59.643Z,27.82
2023-04-02T12:24:59.665Z,27.46
2023-04-02T12:25:59.743Z,27.16
2023-04-02T12:26:59.725Z,27.23
2023-04-02T12:27:59.833Z,27.70
2023-04-02T12:28:59.848Z,27.27
2023-04-02T12:29:59.909Z,27.82
2023-04-02T12:31:00.081Z,27.16
2023-04-02T12:32:00.121Z,27.65
2023-04-02T12:33:01.010Z,27.44
2023-04-02T12:34:00.136Z,28.03
2023-04-02T12:35:00.169Z,28.28
2023-04-02T12:36:00.211Z,28.28
2023-04-02T12:37:00.116Z,28.99
2023-04-02T12:38:00.159Z,29.43
2023-04-02T12:39:00.120Z,29.55
2023-04-02T12:40:00.071Z,29.08
2023-04-02T12:41:00.143Z,28.90
2023-04-02T12:42:00.078Z,30.09
2023-04-02T12:43:00.116Z,29.76
2023-04-02T12:44:00.063Z,30.33
2023-04-02T12:45:00.107Z,30.49
2023-04-02T12:46:00.179Z,30.72
2023-04-02T12:47:00.233Z,31.09
2023-04-02T12:48:00.258Z,31.11
2023-04-02T12:49:00.294Z,31.15
2023-04-02T12:50:00.334Z,31.14
2023-04-02T12:51:00.287Z,31.59
2023-04-02T12:52:00.321Z,31.43
2023-04-02T12:53:00.420Z,31.70